createdAt,value
2018-06-13T00:00:30.391Z,15.70
2018-06-13T00:02:58.805Z,15.90
2018-06-13T00:05:27.198Z,15.80
2018-06-13T00:07:55.673Z,15.80
2018-06-13T00:10:24.118Z,15.70
2018-06-13T00:12:52.546Z,15.80
2018-06-13T00:15:20.941Z,15.70
2018-06-13T00:17:49.367Z,15.70
2018-06-13T00:20:17.764Z,15.60
2018-06-13T00:22:46.178Z,15.60
2018-06-13T00:25:14.577Z,15.70
2018-06-13T00:27:43.054Z,15.60
2018-06-13T00:30:11.450Z,15.70
2018-06-13T00:32:39.933Z,15.70
2018-06-13T00:35:08.335Z,15.40
2018-06-13T00:37:36.749Z,15.40
2018-06-13T00:40:05.289Z,15.50
2018-06-13T00:42:33.744Z,15.50
2018-06-13T00:45:02.145Z,15.50
2018-06-13T00:47:31.245Z,15.50
2018-06-13T00:49:59.676Z,15.60
2018-06-13T00:52:28.077Z,15.60
2018-06-13T00:54:56.497Z,15.50
2018-06-13T00:57:24.931Z,15.40
2018-06-13T00:59:53.369Z,15.40
2018-06-13T01:02:21.782Z,15.30
2018-06-13T01:04:50.210Z,15.30
2018-06-13T01:07:18.618Z,15.40
2018-06-13T01:09:47.040Z,15.40
2018-06-13T01:12:15.441Z,15.50
2018-06-13T01:14:43.866Z,15.50
2018-06-13T01:17:12.281Z,15.50
2018-06-13T01:19:40.773Z,15.40
2018-06-13T01:22:09.173Z,15.40
2018-06-13T01:24:37.590Z,15.40
2018-06-13T01:27:06.009Z,15.40
2018-06-13T01:29:34.438Z,15.20
2018-06-13T01:32:02.861Z,15.20
2018-06-13T01:34:31.310Z,15.20
2018-06-13T01:36:59.730Z,15.30
2018-06-13T01:39:28.250Z,15.50
2018-06-13T01:41:56.649Z,15.50
2018-06-13T01:44:25.080Z,15.40
2018-06-13T01:46:53.481Z,15.40
2018-06-13T01:49:21.921Z,15.50
2018-06-13T01:51:50.325Z,15.40
2018-06-13T01:54:18.752Z,15.40
2018-06-13T01:56:47.158Z,15.40
2018-06-13T01:59:15.609Z,15.20
2018-06-13T02:01:44.009Z,15.10
2018-06-13T02:04:12.442Z,15.00
2018-06-13T02:06:40.856Z,15.00
2018-06-13T02:09:09.361Z,15.00
2018-06-13T02:11:37.881Z,15.00
2018-06-13T02:14:06.312Z,15.10
2018-06-13T02:16:34.721Z,15.00
2018-06-13T02:19:03.161Z,14.90
2018-06-13T02:21:31.600Z,14.90
2018-06-13T02:24:00.036Z,15.10
2018-06-13T02:26:28.446Z,15.00
2018-06-13T02:28:56.881Z,15.10
2018-06-13T02:31:25.285Z,15.20
2018-06-13T02:33:53.819Z,15.10
2018-06-13T02:36:22.232Z,14.90
2018-06-13T02:38:50.669Z,14.80
2018-06-13T02:41:19.102Z,14.90
2018-06-13T02:43:47.535Z,14.80
2018-06-13T02:46:15.957Z,14.80
2018-06-13T02:48:44.391Z,14.70
2018-06-13T02:51:12.790Z,14.80
2018-06-13T02:53:41.322Z,14.70
2018-06-13T02:56:09.733Z,14.70
2018-06-13T02:58:38.205Z,14.50
2018-06-13T03:01:06.621Z,14.70
2018-06-13T03:03:35.070Z,14.90
2018-06-13T03:06:03.501Z,14.80
2018-06-13T03:08:31.924Z,14.80
2018-06-13T03:11:00.453Z,14.80
2018-06-13T03:13:28.866Z,14.80
2018-06-13T03:15:57.310Z,14.80
2018-06-13T03:18:25.831Z,14.60
2018-06-13T03:20:54.346Z,14.70
2018-06-13T03:23:22.745Z,14.90
2018-06-13T03:25:51.171Z,14.80
2018-06-13T03:28:19.613Z,14.70
2018-06-13T03:30:48.048Z,14.80
2018-06-13T03:33:16.473Z,14.80
2018-06-13T03:35:44.901Z,14.70
2018-06-13T03:38:13.308Z,14.60
2018-06-13T03:40:41.733Z,14.60
2018-06-13T03:43:10.143Z,14.70
2018-06-13T03:45:38.570Z,14.60
2018-06-13T03:48:06.975Z,14.60
2018-06-13T03:50:35.405Z,14.50
2018-06-13T03:53:03.835Z,14.50
2018-06-13T03:55:32.277Z,14.60
2018-06-13T03:58:00.677Z,14.50
2018-06-13T04:00:29.118Z,14.40
2018-06-13T04:02:57.534Z,14.50
2018-06-13T04:05:26.019Z,14.50
2018-06-13T04:07:54.442Z,14.50
2018-06-13T04:10:22.862Z,14.40
2018-06-13T04:12:51.269Z,14.50
2018-06-13T04:15:19.714Z,14.50
2018-06-13T04:17:48.121Z,14.60
2018-06-13T04:20:16.567Z,14.70
2018-06-13T04:22:44.965Z,14.50
2018-06-13T04:25:13.391Z,14.60
2018-06-13T04:27:41.800Z,14.60
2018-06-13T04:30:10.233Z,14.30
2018-06-13T04:32:38.755Z,14.40
2018-06-13T04:35:07.157Z,14.40
2018-06-13T04:37:35.611Z,14.50
2018-06-13T04:40:04.112Z,14.40
2018-06-13T04:42:32.584Z,14.30
2018-06-13T04:45:01.033Z,14.30
2018-06-13T04:47:29.470Z,14.30
2018-06-13T04:49:57.933Z,14.30
2018-06-13T04:52:26.353Z,14.50
2018-06-13T04:54:54.801Z,14.50
2018-06-13T04:57:23.262Z,14.50
2018-06-13T04:59:51.709Z,14.40
2018-06-13T05:02:20.133Z,14.50
2018-06-13T05:04:48.590Z,14.70
2018-06-13T05:07:17.018Z,14.70
2018-06-13T05:09:45.498Z,14.70
2018-06-13T05:12:13.937Z,14.90
2018-06-13T05:14:42.390Z,15.00
2018-06-13T05:17:10.832Z,15.10
2018-06-13T05:19:39.290Z,15.10
2018-06-13T05:22:14.173Z,15.20
2018-06-13T05:24:42.617Z,15.20
2018-06-13T05:27:11.041Z,15.20
2018-06-13T05:29:39.503Z,15.10
2018-06-13T05:32:07.933Z,15.00
2018-06-13T05:34:36.381Z,14.90
2018-06-13T05:37:04.938Z,15.00
2018-06-13T05:39:33.401Z,15.10
2018-06-13T05:42:01.855Z,15.10
2018-06-13T05:44:30.291Z,15.10
2018-06-13T05:46:58.753Z,15.00
2018-06-13T05:49:27.199Z,15.20
2018-06-13T05:51:55.673Z,15.10
2018-06-13T05:54:24.116Z,15.40
2018-06-13T05:56:52.668Z,15.60
2018-06-13T05:59:21.108Z,15.80
2018-06-13T06:01:49.581Z,15.80
2018-06-13T06:04:18.029Z,15.80
2018-06-13T06:06:46.468Z,15.70
2018-06-13T06:09:15.490Z,15.70
2018-06-13T06:11:43.962Z,15.80
2018-06-13T06:14:12.390Z,16.00
2018-06-13T06:16:40.853Z,15.90
2018-06-13T06:19:09.293Z,15.90
2018-06-13T06:21:37.776Z,16.00
2018-06-13T06:24:06.201Z,16.20
2018-06-13T06:26:34.649Z,16.40
2018-06-13T06:29:03.088Z,16.40
2018-06-13T06:31:31.548Z,16.10
2018-06-13T06:33:59.981Z,16.30
2018-06-13T06:36:28.414Z,16.40
2018-06-13T06:38:56.904Z,16.50
2018-06-13T06:41:25.393Z,16.30
2018-06-13T06:43:53.801Z,16.40
2018-06-13T06:46:22.236Z,16.30
2018-06-13T06:48:50.678Z,16.10
2018-06-13T06:51:19.117Z,16.20
2018-06-13T06:53:47.521Z,16.40
2018-06-13T06:56:15.941Z,16.20
2018-06-13T06:58:44.341Z,16.30
2018-06-13T07:01:12.777Z,16.30
2018-06-13T07:03:41.178Z,16.40
2018-06-13T07:06:09.601Z,16.30
2018-06-13T07:08:38.034Z,16.30
2018-06-13T07:11:06.473Z,16.40
2018-06-13T07:13:34.894Z,16.40
2018-06-13T07:16:03.324Z,16.20
2018-06-13T07:18:31.721Z,16.10
2018-06-13T07:21:00.197Z,15.70
2018-06-13T07:23:28.611Z,15.70
2018-06-13T07:25:57.058Z,16.00
2018-06-13T07:28:25.466Z,16.20
2018-06-13T07:30:53.889Z,16.10
2018-06-13T07:33:22.309Z,16.20
2018-06-13T07:35:50.739Z,16.30
2018-06-13T07:38:19.143Z,16.30
2018-06-13T07:40:47.581Z,16.20
2018-06-13T07:43:15.994Z,16.20
2018-06-13T07:45:44.461Z,16.30
2018-06-13T07:48:12.871Z,16.10
2018-06-13T07:50:41.297Z,16.40
2018-06-13T07:53:09.697Z,16.20
2018-06-13T07:55:38.094Z,16.20
2018-06-13T07:58:06.541Z,16.20
2018-06-13T08:00:34.950Z,16.10
2018-06-13T08:03:03.374Z,16.00
2018-06-13T08:05:31.782Z,15.90
2018-06-13T08:10:28.333Z,16.10
2018-06-13T08:12:56.757Z,16.40
2018-06-13T08:15:25.198Z,16.30
2018-06-13T08:17:53.650Z,16.30
2018-06-13T08:20:22.062Z,16.40
2018-06-13T08:22:50.477Z,16.40
2018-06-13T08:25:18.865Z,16.40
2018-06-13T08:27:49.807Z,16.40
2018-06-13T08:30:18.236Z,16.40
2018-06-13T08:32:46.736Z,16.40
2018-06-13T08:35:15.142Z,16.30
2018-06-13T08:37:43.581Z,16.30
2018-06-13T08:40:11.990Z,16.20
2018-06-13T08:42:40.441Z,16.30
2018-06-13T08:45:08.849Z,16.20
2018-06-13T08:47:37.257Z,16.10
2018-06-13T08:50:05.694Z,16.30
2018-06-13T08:52:34.113Z,16.20
2018-06-13T08:55:02.542Z,16.00
2018-06-13T08:57:30.977Z,16.20
2018-06-13T08:59:59.391Z,16.40
2018-06-13T09:02:27.830Z,16.40
2018-06-13T09:04:56.240Z,16.40
2018-06-13T09:07:24.674Z,16.60
2018-06-13T09:09:53.113Z,16.80
2018-06-13T09:12:21.546Z,17.10
2018-06-13T09:14:49.961Z,17.30
2018-06-13T09:17:18.381Z,17.10
2018-06-13T09:19:46.785Z,17.30
2018-06-13T09:22:15.217Z,17.20
2018-06-13T09:24:50.250Z,17.20
2018-06-13T09:27:18.685Z,17.40
2018-06-13T09:29:47.090Z,17.30
2018-06-13T09:32:15.517Z,17.40
2018-06-13T09:34:43.978Z,17.40
2018-06-13T09:37:12.417Z,17.40
2018-06-13T09:39:40.831Z,17.50
2018-06-13T09:42:09.266Z,17.20
2018-06-13T09:44:37.682Z,17.00
2018-06-13T09:47:06.900Z,16.80
2018-06-13T09:49:34.539Z,16.90
2018-06-13T09:52:02.993Z,16.90
2018-06-13T09:54:31.435Z,17.00
2018-06-13T09:56:59.878Z,16.80
2018-06-13T09:59:33.702Z,17.00
2018-06-13T10:02:07.365Z,17.00
2018-06-13T10:04:36.099Z,17.20
2018-06-13T10:07:04.546Z,17.30
2018-06-13T10:09:32.979Z,17.10
2018-06-13T10:12:01.405Z,17.40
2018-06-13T10:14:29.826Z,17.60
2018-06-13T10:16:58.266Z,17.90
2018-06-13T10:19:26.681Z,18.10
2018-06-13T10:21:55.130Z,18.10
2018-06-13T10:24:23.557Z,17.90
2018-06-13T10:26:51.981Z,17.80
2018-06-13T10:29:20.401Z,17.60
2018-06-13T10:31:48.831Z,17.50
2018-06-13T10:34:17.306Z,17.70
2018-06-13T10:36:45.778Z,17.70
2018-06-13T10:39:14.250Z,17.60
2018-06-13T10:41:42.681Z,17.60
2018-06-13T10:44:11.149Z,17.70
2018-06-13T10:46:39.573Z,17.60
2018-06-13T10:49:08.125Z,17.60
2018-06-13T10:51:36.582Z,17.60
2018-06-13T10:54:05.065Z,17.30
2018-06-13T10:56:33.502Z,17.50
2018-06-13T10:59:01.954Z,17.70
2018-06-13T11:01:30.397Z,17.70
2018-06-13T11:03:58.860Z,17.70
2018-06-13T11:06:27.302Z,17.70
2018-06-13T11:08:55.772Z,17.40
2018-06-13T11:11:24.218Z,17.60
2018-06-13T11:13:52.665Z,17.60
2018-06-13T11:16:21.113Z,17.20
2018-06-13T11:18:49.584Z,17.40
2018-06-13T11:21:18.034Z,17.30
2018-06-13T11:23:46.505Z,17.50
2018-06-13T11:26:15.046Z,17.70
2018-06-13T11:28:43.465Z,17.50
2018-06-13T11:31:11.918Z,17.50
2018-06-13T11:33:40.389Z,17.50
2018-06-13T11:36:08.813Z,17.60
2018-06-13T11:38:37.458Z,17.70
2018-06-13T11:41:05.898Z,17.80
2018-06-13T11:43:34.358Z,18.00
2018-06-13T11:46:02.828Z,18.20
2018-06-13T11:48:31.298Z,18.10
2018-06-13T11:50:59.737Z,18.30
2018-06-13T11:53:28.230Z,18.40
2018-06-13T11:55:56.640Z,18.60
2018-06-13T11:58:25.098Z,18.90
2018-06-13T12:00:53.578Z,18.90
2018-06-13T12:03:22.044Z,19.00
2018-06-13T12:05:50.524Z,18.90
2018-06-13T12:08:18.974Z,18.90
2018-06-13T12:10:47.402Z,18.90
2018-06-13T12:13:15.849Z,18.80
2018-06-13T12:15:44.341Z,19.10
2018-06-13T12:18:12.797Z,19.20
2018-06-13T12:20:41.289Z,19.00
2018-06-13T12:23:09.765Z,18.80
2018-06-13T12:25:38.193Z,18.80
2018-06-13T12:28:06.669Z,19.20
2018-06-13T12:30:35.117Z,19.40
2018-06-13T12:33:03.609Z,19.70
2018-06-13T12:35:32.042Z,19.40
2018-06-13T12:38:00.509Z,19.70
2018-06-13T12:40:28.933Z,19.50
2018-06-13T12:42:57.386Z,19.30
2018-06-13T12:45:25.855Z,19.00
2018-06-13T12:47:54.322Z,19.30
2018-06-13T12:50:22.805Z,19.40
2018-06-13T12:52:51.258Z,19.50
2018-06-13T12:55:19.732Z,19.20
2018-06-13T12:57:48.174Z,19.30
2018-06-13T13:00:16.673Z,19.30
2018-06-13T13:02:45.865Z,19.20
2018-06-13T13:05:14.329Z,19.00
2018-06-13T13:07:42.760Z,19.00
2018-06-13T13:10:11.222Z,18.90
2018-06-13T13:12:39.746Z,18.80
2018-06-13T13:15:08.254Z,18.00
2018-06-13T13:17:36.753Z,18.00
2018-06-13T13:20:05.262Z,18.20
2018-06-13T13:22:33.730Z,18.00
2018-06-13T13:25:02.258Z,17.90
2018-06-13T13:27:30.687Z,17.70
2018-06-13T13:29:59.142Z,18.10
2018-06-13T13:32:27.573Z,18.10
2018-06-13T13:34:56.041Z,18.20
2018-06-13T13:37:24.453Z,18.50
2018-06-13T13:39:52.899Z,18.70
2018-06-13T13:42:21.346Z,18.90
2018-06-13T13:44:49.812Z,19.00
2018-06-13T13:47:18.249Z,19.10
2018-06-13T13:49:46.685Z,19.10
2018-06-13T13:52:15.103Z,18.80
2018-06-13T13:54:43.561Z,18.60
2018-06-13T13:57:11.957Z,18.70
2018-06-13T13:59:40.385Z,18.80
2018-06-13T14:02:08.784Z,18.50
2018-06-13T14:04:37.269Z,18.10
2018-06-13T14:07:05.694Z,18.30
2018-06-13T14:09:34.135Z,18.20
2018-06-13T14:12:02.562Z,18.30
2018-06-13T14:14:31.017Z,18.40
2018-06-13T14:16:59.427Z,18.10
2018-06-13T14:19:27.857Z,18.10
2018-06-13T14:21:56.281Z,18.10
2018-06-13T14:24:24.718Z,17.90
2018-06-13T14:26:53.142Z,17.50
2018-06-13T14:29:21.576Z,17.40
2018-06-13T14:31:49.982Z,17.60
2018-06-13T14:34:18.424Z,17.80
2018-06-13T14:36:46.830Z,17.80
2018-06-13T14:39:15.254Z,17.70
2018-06-13T14:41:43.657Z,17.70
2018-06-13T14:44:12.159Z,17.60
2018-06-13T14:46:40.581Z,17.80
2018-06-13T14:49:09.014Z,18.00
2018-06-13T14:51:37.429Z,17.60
2018-06-13T14:54:05.889Z,17.60
2018-06-13T14:56:34.457Z,17.80
2018-06-13T14:59:03.240Z,17.70
2018-06-13T15:01:31.692Z,17.50
2018-06-13T15:04:00.165Z,17.60
2018-06-13T15:06:28.576Z,17.40
2018-06-13T15:08:57.009Z,17.70
2018-06-13T15:11:25.534Z,17.80
2018-06-13T15:13:53.957Z,17.90
2018-06-13T15:16:22.469Z,18.00
2018-06-13T15:18:50.866Z,18.20
2018-06-13T15:21:19.336Z,18.10
2018-06-13T15:23:47.809Z,18.10
2018-06-13T15:26:16.273Z,18.10
2018-06-13T15:28:44.680Z,17.90
2018-06-13T15:31:13.122Z,17.80
2018-06-13T15:33:41.597Z,17.60
2018-06-13T15:36:10.046Z,17.70
2018-06-13T15:38:38.457Z,17.70
2018-06-13T15:41:06.950Z,17.60
2018-06-13T15:43:35.371Z,17.60
2018-06-13T15:46:03.890Z,17.70
2018-06-13T15:48:32.329Z,17.90
2018-06-13T15:51:00.808Z,17.50
2018-06-13T15:53:29.262Z,17.40
2018-06-13T15:55:57.737Z,17.60
2018-06-13T15:58:26.145Z,17.70
2018-06-13T16:00:54.598Z,17.50
2018-06-13T16:03:23.001Z,17.50
2018-06-13T16:05:51.674Z,17.30
2018-06-13T16:08:20.106Z,17.40
2018-06-13T16:10:48.560Z,17.40
2018-06-13T16:13:16.978Z,17.30
2018-06-13T16:15:45.441Z,17.40
2018-06-13T16:18:13.913Z,17.30
2018-06-13T16:20:42.384Z,17.30
2018-06-13T16:23:11.965Z,17.30
2018-06-13T16:25:40.416Z,17.20
2018-06-13T16:28:08.817Z,17.10
2018-06-13T16:30:37.241Z,17.30
2018-06-13T16:33:05.777Z,17.20
2018-06-13T16:35:34.227Z,17.20
2018-06-13T16:38:02.738Z,17.30
2018-06-13T16:40:31.192Z,17.50
2018-06-13T16:42:59.606Z,17.60
2018-06-13T16:45:28.046Z,17.60
2018-06-13T16:47:56.517Z,17.70
2018-06-13T16:50:36.088Z,17.60
2018-06-13T16:53:12.824Z,17.60
2018-06-13T16:55:41.249Z,17.80
2018-06-13T16:58:09.721Z,17.70
2018-06-13T17:00:38.147Z,17.80
2018-06-13T17:03:06.558Z,17.90
2018-06-13T17:05:35.013Z,18.10
2018-06-13T17:08:03.458Z,18.80
2018-06-13T17:10:31.881Z,19.10
2018-06-13T17:13:00.293Z,19.70
2018-06-13T17:15:28.756Z,19.50
2018-06-13T17:17:57.173Z,19.50
2018-06-13T17:20:25.609Z,19.30
2018-06-13T17:22:54.007Z,18.70
2018-06-13T17:25:22.466Z,18.60
2018-06-13T17:27:50.917Z,18.50
2018-06-13T17:30:19.333Z,18.30
2018-06-13T17:32:47.756Z,18.30
2018-06-13T17:35:16.207Z,18.10
2018-06-13T17:37:44.626Z,17.60
2018-06-13T17:40:13.095Z,17.60
2018-06-13T17:42:41.534Z,17.40
2018-06-13T17:45:09.981Z,17.60
2018-06-13T17:47:38.405Z,17.60
2018-06-13T17:50:06.857Z,17.60
2018-06-13T17:52:35.304Z,17.80
2018-06-13T17:55:03.725Z,17.90
2018-06-13T17:57:32.152Z,17.40
2018-06-13T18:00:00.582Z,17.40
2018-06-13T18:02:29.006Z,17.40
2018-06-13T18:04:57.409Z,17.40
2018-06-13T18:07:25.834Z,17.50
2018-06-13T18:09:54.254Z,17.50
2018-06-13T18:12:22.685Z,17.40
2018-06-13T18:14:51.097Z,17.10
2018-06-13T18:17:19.542Z,17.10
2018-06-13T18:19:47.966Z,17.20
2018-06-13T18:22:16.394Z,17.00
2018-06-13T18:27:12.970Z,16.90
2018-06-13T18:29:41.388Z,16.90
2018-06-13T18:32:09.825Z,17.00
2018-06-13T18:34:38.248Z,17.10
2018-06-13T18:37:06.748Z,17.00
2018-06-13T18:39:35.173Z,17.00
2018-06-13T18:42:03.654Z,16.70
2018-06-13T18:44:32.070Z,16.70
2018-06-13T18:47:00.525Z,16.70
2018-06-13T18:49:28.969Z,16.60
2018-06-13T18:51:57.416Z,16.70
2018-06-13T18:54:25.909Z,16.90
2018-06-13T18:56:54.374Z,16.70
2018-06-13T18:59:22.809Z,16.60
2018-06-13T19:01:51.270Z,16.40
2018-06-13T19:04:19.754Z,16.50
2018-06-13T19:06:48.238Z,16.60
2018-06-13T19:09:16.669Z,16.50
2018-06-13T19:11:45.122Z,16.50
2018-06-13T19:14:13.549Z,16.20
2018-06-13T19:16:42.029Z,16.20
2018-06-13T19:19:10.468Z,16.20
2018-06-13T19:21:38.928Z,16.20
2018-06-13T19:24:07.394Z,16.10
2018-06-13T19:26:35.845Z,16.30
2018-06-13T19:29:04.290Z,16.20
2018-06-13T19:31:32.798Z,16.30
2018-06-13T19:34:01.226Z,16.20
2018-06-13T19:36:29.625Z,16.00
2018-06-13T19:38:58.068Z,16.00
2018-06-13T19:41:26.488Z,15.80
2018-06-13T19:43:54.910Z,15.70
2018-06-13T19:46:23.314Z,15.80
2018-06-13T19:48:53.337Z,15.90
2018-06-13T19:51:21.838Z,15.60
2018-06-13T19:53:55.665Z,15.60
2018-06-13T19:56:27.161Z,15.50
2018-06-13T19:58:55.609Z,15.50
2018-06-13T20:01:24.136Z,15.60
2018-06-13T20:03:57.950Z,15.60
2018-06-13T20:06:26.412Z,15.60
2018-06-13T20:08:54.845Z,15.50
2018-06-13T20:11:23.345Z,15.60
2018-06-13T20:13:57.232Z,15.50
2018-06-13T20:16:42.429Z,15.60
2018-06-13T20:19:16.213Z,15.40
2018-06-13T20:21:44.617Z,15.40
2018-06-13T20:24:13.055Z,15.50
2018-06-13T20:26:46.916Z,15.50
2018-06-13T20:29:20.704Z,15.40
2018-06-13T20:31:49.126Z,15.40
2018-06-13T20:34:17.577Z,15.40
2018-06-13T20:36:46.002Z,15.50
2018-06-13T20:39:14.442Z,15.40
2018-06-13T20:41:42.934Z,15.40
2018-06-13T20:44:11.995Z,15.50
2018-06-13T20:46:40.673Z,15.50
2018-06-13T20:49:09.110Z,15.50
2018-06-13T20:51:37.523Z,15.40
2018-06-13T20:54:05.993Z,15.40
2018-06-13T20:56:34.513Z,15.40
2018-06-13T20:59:04.292Z,15.60
2018-06-13T21:01:33.066Z,15.70
2018-06-13T21:04:01.784Z,15.90
2018-06-13T21:06:30.218Z,15.90
2018-06-13T21:08:58.655Z,15.80
2018-06-13T21:11:27.109Z,16.00
2018-06-13T21:13:55.513Z,16.00
2018-06-13T21:16:23.936Z,16.00
2018-06-13T21:18:52.334Z,16.10
2018-06-13T21:21:20.772Z,16.00
2018-06-13T21:23:49.181Z,16.00
2018-06-13T21:26:17.616Z,16.00
2018-06-13T21:28:46.046Z,15.90
2018-06-13T21:31:14.484Z,15.60
2018-06-13T21:33:42.916Z,15.50
2018-06-13T21:36:11.371Z,15.50
2018-06-13T21:38:39.809Z,15.40
2018-06-13T21:41:08.241Z,15.20
2018-06-13T21:43:36.668Z,15.20
2018-06-13T21:46:05.103Z,15.20
2018-06-13T21:48:33.566Z,15.30
2018-06-13T21:51:02.018Z,15.40
2018-06-13T21:53:30.430Z,15.80
2018-06-13T21:55:58.870Z,16.00
2018-06-13T21:58:27.274Z,16.00
2018-06-13T22:00:55.742Z,16.00
2018-06-13T22:03:24.175Z,15.90
2018-06-13T22:05:52.663Z,16.00
2018-06-13T22:08:21.070Z,15.80
2018-06-13T22:10:49.507Z,15.70
2018-06-13T22:13:17.966Z,15.60
2018-06-13T22:15:46.393Z,15.60
2018-06-13T22:18:14.848Z,15.60
2018-06-13T22:20:43.324Z,15.50
2018-06-13T22:23:11.772Z,15.50
2018-06-13T22:25:40.234Z,15.50
2018-06-13T22:28:08.730Z,15.40
2018-06-13T22:30:37.150Z,15.30
2018-06-13T22:33:05.600Z,15.40
2018-06-13T22:35:34.070Z,15.60
2018-06-13T22:38:02.509Z,15.80
2018-06-13T22:40:30.958Z,16.00
2018-06-13T22:42:59.413Z,16.00
2018-06-13T22:45:27.893Z,15.80
2018-06-13T22:47:56.345Z,15.60
2018-06-13T22:50:24.794Z,15.50
2018-06-13T22:52:53.361Z,15.50
2018-06-13T22:55:21.792Z,15.50
2018-06-13T22:57:50.234Z,15.40
2018-06-13T23:00:32.089Z,15.30
2018-06-13T23:03:00.534Z,15.10
2018-06-13T23:05:28.961Z,15.00
2018-06-13T23:07:57.503Z,15.00
2018-06-13T23:10:25.858Z,15.10
2018-06-13T23:12:54.333Z,15.00
2018-06-13T23:15:22.978Z,14.90
2018-06-13T23:17:51.440Z,14.90
2018-06-13T23:20:20.730Z,15.10
2018-06-13T23:22:49.233Z,15.50
2018-06-13T23:25:17.694Z,15.30
2018-06-13T23:27:46.160Z,15.40
2018-06-13T23:30:14.594Z,15.40
2018-06-13T23:32:43.071Z,15.50
2018-06-13T23:35:11.508Z,15.40
2018-06-13T23:37:39.965Z,15.30
2018-06-13T23:40:08.423Z,15.10
2018-06-13T23:42:36.877Z,15.10
2018-06-13T23:45:05.322Z,15.40
2018-06-13T23:47:33.776Z,15.30
2018-06-13T23:50:02.247Z,15.30
2018-06-13T23:52:30.706Z,15.40
2018-06-13T23:54:59.165Z,15.20
2018-06-13T23:57:27.611Z,15.40
2018-06-13T23:59:56.069Z,15.20
